Time;durP1;ratioP1;P1;durP2;ratioP2;P2;SDS_P1;SDS_P2;PMS_P1;PMS_P2;Temp;Humidity;BMP_temperature;BMP_pressure;BME280_temperature;BME280_humidity;BME280_pressure;Samples;Min_cycle;Max_cycle;Signal;HPM_P1;HPM_P2
2021/03/18 00:01:46;;;;;;;9.40;8.27;;;0.50;99.90;;;;;;5055040;28;20497;-71
2021/03/18 00:04:15;;;;;;;9.90;8.77;;;0.50;99.90;;;;;;5060373;28;20445;-70
2021/03/18 00:06:43;;;;;;;11.33;8.80;;;0.50;99.90;;;;;;5061061;28;20437;-71
2021/03/18 00:09:13;;;;;;;9.63;8.00;;;0.50;99.90;;;;;;5060210;28;20482;-70
2021/03/18 00:11:41;;;;;;;11.70;7.83;;;0.50;99.90;;;;;;5059731;28;20451;-71
2021/03/18 00:14:12;;;;;;;11.20;8.27;;;0.40;99.90;;;;;;5057740;28;20435;-70
2021/03/18 00:16:37;;;;;;;11.63;8.17;;;0.40;99.90;;;;;;5058101;28;20446;-71
2021/03/18 00:19:04;;;;;;;12.23;7.67;;;0.40;99.90;;;;;;5054628;28;20529;-71
2021/03/18 00:21:30;;;;;;;10.60;8.27;;;0.40;99.90;;;;;;5055401;28;20229;-71
2021/03/18 00:23:56;;;;;;;8.47;6.90;;;0.40;99.90;;;;;;5056998;28;20474;-71
2021/03/18 00:26:24;;;;;;;9.00;8.10;;;0.40;99.90;;;;;;5057438;28;20684;-71
2021/03/18 00:28:51;;;;;;;11.10;8.13;;;0.40;99.90;;;;;;5057199;28;20203;-71
2021/03/18 00:31:22;;;;;;;10.10;7.47;;;0.30;99.90;;;;;;5057367;28;20843;-71
2021/03/18 00:33:48;;;;;;;9.37;7.93;;;0.30;99.90;;;;;;5058900;28;20568;-71
2021/03/18 00:36:14;;;;;;;9.77;7.97;;;0.30;99.90;;;;;;5073639;28;20901;-70
2021/03/18 00:38:40;;;;;;;9.00;8.10;;;0.30;99.90;;;;;;5055999;28;20439;-71
2021/03/18 00:41:08;;;;;;;9.13;8.20;;;0.30;99.90;;;;;;5058247;28;20350;-71
2021/03/18 00:43:34;;;;;;;9.43;8.50;;;0.30;99.90;;;;;;5058362;28;20438;-71
2021/03/18 00:46:00;;;;;;;9.67;8.70;;;0.30;99.90;;;;;;5075041;28;20544;-71
2021/03/18 00:48:28;;;;;;;13.60;10.57;;;0.30;99.90;;;;;;5054469;28;20443;-71
2021/03/18 00:50:59;;;;;;;10.70;9.50;;;0.30;99.90;;;;;;5057402;28;20831;-71
2021/03/18 00:53:30;;;;;;;14.60;10.20;;;0.30;99.90;;;;;;5059725;28;20438;-70
2021/03/18 00:55:56;;;;;;;12.10;10.13;;;0.30;99.90;;;;;;5057529;28;20961;-71
2021/03/18 00:58:23;;;;;;;12.93;9.50;;;0.30;99.90;;;;;;5057848;28;20458;-71
2021/03/18 01:00:52;;;;;;;13.40;9.97;;;0.20;99.90;;;;;;5055147;28;20918;-71
2021/03/18 01:03:18;;;;;;;10.77;9.77;;;0.30;99.90;;;;;;5059450;28;20431;-71
2021/03/18 01:05:47;;;;;;;13.77;11.00;;;0.20;99.90;;;;;;5060403;28;20971;-71
2021/03/18 01:08:15;;;;;;;16.23;11.73;;;0.20;99.90;;;;;;5058421;28;20488;-71
2021/03/18 01:10:47;;;;;;;16.77;11.43;;;0.20;99.90;;;;;;5053963;28;20458;-71
2021/03/18 01:13:18;;;;;;;17.47;12.37;;;0.20;99.90;;;;;;5056495;28;20451;-71
2021/03/18 01:15:52;;;;;;;16.47;11.50;;;0.20;99.90;;;;;;5060402;28;20430;-71
2021/03/18 01:18:20;;;;;;;13.40;10.60;;;0.20;99.90;;;;;;5057538;28;20497;-71
2021/03/18 01:20:47;;;;;;;14.60;10.30;;;0.10;99.90;;;;;;5057804;28;20431;-71
2021/03/18 01:23:12;;;;;;;14.17;10.70;;;0.10;99.90;;;;;;5058347;28;20470;-71
2021/03/18 01:25:38;;;;;;;10.30;9.17;;;0.10;99.90;;;;;;5056978;28;20466;-71
2021/03/18 01:28:04;;;;;;;12.67;11.33;;;0.00;99.90;;;;;;5058572;28;20198;-71
2021/03/18 01:30:31;;;;;;;15.30;11.10;;;0.00;99.90;;;;;;5056975;28;20195;-71
2021/03/18 01:32:57;;;;;;;13.30;11.10;;;0.00;99.90;;;;;;5056524;28;20535;-71
2021/03/18 01:35:23;;;;;;;13.57;11.40;;;0.00;99.90;;;;;;5059103;28;20994;-71
2021/03/18 01:37:50;;;;;;;15.20;10.20;;;0.00;99.90;;;;;;5057919;28;20428;-70
2021/03/18 01:40:28;;;;;;;14.27;10.20;;;-0.10;99.90;;;;;;5049993;28;20883;-71
2021/03/18 01:42:54;;;;;;;12.43;8.80;;;-0.10;99.90;;;;;;5055019;28;20446;-70
2021/03/18 01:45:20;;;;;;;10.10;9.03;;;-0.10;99.90;;;;;;5057947;28;20454;-70
2021/03/18 01:47:48;;;;;;;9.23;8.17;;;-0.10;99.90;;;;;;5057196;28;20434;-70
2021/03/18 01:50:16;;;;;;;11.10;8.27;;;-0.10;99.90;;;;;;5052654;28;20575;-71
2021/03/18 01:52:42;;;;;;;10.60;7.87;;;-0.10;99.90;;;;;;5058382;28;20466;-71
2021/03/18 01:55:11;;;;;;;13.87;9.60;;;-0.10;99.90;;;;;;5058141;28;20981;-71
2021/03/18 01:57:38;;;;;;;8.87;7.83;;;-0.20;99.90;;;;;;5056297;28;20444;-71
2021/03/18 02:00:09;;;;;;;11.87;9.70;;;-0.20;99.90;;;;;;5059699;28;20459;-70
2021/03/18 02:02:35;;;;;;;9.87;8.87;;;-0.10;99.90;;;;;;5058664;28;20418;-70
2021/03/18 02:05:02;;;;;;;11.50;8.47;;;-0.20;99.90;;;;;;5063756;28;20428;-70
2021/03/18 02:07:28;;;;;;;10.07;8.77;;;-0.20;99.90;;;;;;5057660;28;20429;-70
2021/03/18 02:09:53;;;;;;;12.90;9.43;;;-0.20;99.90;;;;;;5061191;28;20535;-70
2021/03/18 02:12:19;;;;;;;11.90;9.17;;;-0.20;99.90;;;;;;5058738;28;20190;-70
2021/03/18 02:14:45;;;;;;;9.97;8.43;;;-0.30;99.90;;;;;;5062987;28;20177;-70
2021/03/18 02:17:15;;;;;;;11.73;9.03;;;-0.30;99.90;;;;;;5062668;28;20687;-70
2021/03/18 02:20:18;;;;;;;12.73;8.87;;;-0.30;99.90;;;;;;5060251;28;20433;-70
2021/03/18 02:23:08;;;;;;;11.03;8.13;;;-0.30;99.90;;;;;;5058325;28;20822;-70
2021/03/18 02:25:57;;;;;;;9.37;8.33;;;-0.30;99.90;;;;;;5063196;28;20927;-70
2021/03/18 02:28:48;;;;;;;10.60;8.10;;;-0.40;99.90;;;;;;5021476;28;20904;-70
2021/03/18 02:32:10;;;;;;;10.27;8.30;;;-0.40;99.90;;;;;;5057847;28;20474;-70
2021/03/18 02:35:16;;;;;;;10.87;8.63;;;-0.40;99.90;;;;;;5042710;28;20996;-69
2021/03/18 02:37:50;;;;;;;11.60;8.67;;;-0.40;99.90;;;;;;5018837;28;20512;-69
2021/03/18 02:40:21;;;;;;;9.33;7.90;;;-0.40;99.90;;;;;;5019167;28;20985;-70
2021/03/18 02:42:54;;;;;;;12.63;9.17;;;-0.40;99.90;;;;;;5043952;28;20445;-70
2021/03/18 02:45:21;;;;;;;11.80;8.70;;;-0.40;99.90;;;;;;5056919;28;20881;-69
2021/03/18 02:47:49;;;;;;;9.07;8.10;;;-0.40;99.90;;;;;;5061532;28;20444;-70
2021/03/18 02:50:16;;;;;;;11.63;9.60;;;-0.30;99.90;;;;;;5059040;28;20491;-70
2021/03/18 02:52:44;;;;;;;16.97;9.93;;;-0.30;99.90;;;;;;5061850;28;20478;-70
2021/03/18 02:55:11;;;;;;;14.07;10.33;;;-0.30;99.90;;;;;;5062302;28;20425;-69
2021/03/18 02:57:39;;;;;;;12.63;9.27;;;-0.40;99.90;;;;;;5059113;28;20428;-70
2021/03/18 03:00:08;;;;;;;17.57;10.60;;;-0.30;99.90;;;;;;5056554;28;20429;-70
2021/03/18 03:02:35;;;;;;;15.77;10.70;;;-0.30;99.90;;;;;;5057042;28;20432;-70
2021/03/18 03:05:04;;;;;;;13.17;9.10;;;-0.20;99.90;;;;;;5059643;28;20431;-70
2021/03/18 03:07:30;;;;;;;15.40;10.90;;;-0.10;99.90;;;;;;5058913;28;20434;-70
2021/03/18 03:09:57;;;;;;;15.40;10.70;;;-0.10;99.90;;;;;;5057139;28;20449;-69
2021/03/18 03:12:26;;;;;;;14.37;10.07;;;0.10;99.90;;;;;;5060183;28;20208;-70
2021/03/18 03:14:55;;;;;;;20.90;11.40;;;0.10;99.90;;;;;;5061416;28;20546;-70
2021/03/18 03:17:23;;;;;;;14.67;9.70;;;0.20;99.90;;;;;;5060277;28;20427;-70
2021/03/18 03:19:53;;;;;;;18.60;10.53;;;0.20;99.90;;;;;;5057291;28;20444;-70
2021/03/18 03:22:21;;;;;;;15.37;11.10;;;0.20;99.90;;;;;;5061156;28;20443;-70
2021/03/18 03:24:47;;;;;;;26.97;10.87;;;0.10;99.90;;;;;;5043051;28;20484;-69
2021/03/18 03:27:13;;;;;;;15.20;11.80;;;0.20;99.90;;;;;;5059251;28;20434;-69
2021/03/18 03:29:44;;;;;;;16.63;11.17;;;0.10;99.90;;;;;;5059425;28;20442;-70
2021/03/18 03:32:11;;;;;;;14.63;10.30;;;0.00;99.90;;;;;;5059024;28;20915;-69
2021/03/18 03:34:38;;;;;;;15.60;10.27;;;-0.10;99.90;;;;;;5060939;28;20759;-70
2021/03/18 03:37:05;;;;;;;13.73;10.30;;;-0.10;99.90;;;;;;5059430;28;20432;-70
2021/03/18 03:39:32;;;;;;;16.20;10.70;;;-0.20;99.90;;;;;;5056150;28;20457;-70
2021/03/18 03:41:57;;;;;;;18.83;9.33;;;-0.20;99.90;;;;;;5060859;28;20515;-70
2021/03/18 03:44:23;;;;;;;13.00;9.23;;;-0.20;99.90;;;;;;5057073;28;20437;-70
2021/03/18 03:46:49;;;;;;;21.73;8.83;;;-0.20;99.90;;;;;;5059220;28;20513;-69
2021/03/18 03:49:15;;;;;;;15.20;9.00;;;-0.30;99.90;;;;;;5058110;28;20193;-71
2021/03/18 03:52:18;;;;;;;13.93;8.50;;;-0.40;99.90;;;;;;5059817;28;20467;-71
2021/03/18 03:55:13;;;;;;;12.03;8.07;;;-0.40;99.90;;;;;;5058229;28;20524;-70
2021/03/18 03:57:55;;;;;;;11.83;8.07;;;-0.50;99.90;;;;;;5053037;28;20836;-71
2021/03/18 04:00:21;;;;;;;10.07;7.10;;;-0.50;99.90;;;;;;5057204;28;20475;-70
2021/03/18 04:02:49;;;;;;;10.53;7.60;;;-0.50;99.90;;;;;;5059690;28;20763;-70
2021/03/18 04:05:15;;;;;;;9.23;7.20;;;-0.40;99.90;;;;;;5058891;28;20441;-70
2021/03/18 04:07:42;;;;;;;11.83;8.13;;;-0.50;99.90;;;;;;5060565;28;20790;-70
2021/03/18 04:10:11;;;;;;;9.87;7.97;;;-0.50;99.90;;;;;;5059521;28;20496;-70
2021/03/18 04:12:40;;;;;;;9.10;7.67;;;-0.60;99.90;;;;;;5057297;28;20472;-70
2021/03/18 04:15:11;;;;;;;20.10;8.80;;;-0.50;99.90;;;;;;5055908;28;20751;-70
2021/03/18 04:17:42;;;;;;;8.50;7.00;;;-0.50;99.90;;;;;;5062700;28;20975;-70
2021/03/18 04:20:12;;;;;;;36.53;9.53;;;-0.60;99.90;;;;;;5057257;28;20429;-70
2021/03/18 04:22:40;;;;;;;9.90;6.83;;;-0.50;99.90;;;;;;5058638;28;20982;-70
2021/03/18 04:25:08;;;;;;;23.93;8.37;;;-0.60;99.90;;;;;;5056925;28;20448;-70
2021/03/18 04:27:36;;;;;;;39.80;8.67;;;-0.50;99.90;;;;;;5057491;28;20436;-70
2021/03/18 04:30:11;;;;;;;8.43;6.60;;;-0.60;99.90;;;;;;5055552;28;20443;-70
2021/03/18 04:32:39;;;;;;;14.37;7.70;;;-0.60;99.90;;;;;;5059843;28;20469;-70
2021/03/18 04:35:06;;;;;;;11.93;7.80;;;-0.50;99.90;;;;;;5057407;28;20471;-70
2021/03/18 04:37:34;;;;;;;15.97;9.20;;;-0.60;99.90;;;;;;5058783;28;20423;-70
2021/03/18 04:40:02;;;;;;;11.03;7.50;;;-0.50;99.90;;;;;;5057832;28;20430;-70
2021/03/18 04:42:29;;;;;;;16.77;7.87;;;-0.60;99.90;;;;;;5058150;28;20493;-71
2021/03/18 04:44:55;;;;;;;12.97;8.47;;;-0.50;99.90;;;;;;5054718;28;20436;-70
2021/03/18 04:47:22;;;;;;;11.70;7.43;;;-0.50;99.90;;;;;;5058471;28;20436;-70
2021/03/18 04:49:49;;;;;;;9.93;6.80;;;-0.40;99.90;;;;;;5056954;28;20519;-70
2021/03/18 04:52:17;;;;;;;11.43;8.00;;;-0.40;99.90;;;;;;5059540;28;20462;-70
2021/03/18 04:54:43;;;;;;;16.27;7.43;;;-0.40;99.90;;;;;;5060137;28;20453;-70
2021/03/18 04:57:10;;;;;;;10.50;7.73;;;-0.40;99.90;;;;;;5057915;28;20452;-70
2021/03/18 04:59:38;;;;;;;12.43;8.37;;;-0.40;99.90;;;;;;5055184;28;20453;-70
2021/03/18 05:02:05;;;;;;;10.93;6.80;;;-0.30;99.90;;;;;;5056651;28;20458;-70
2021/03/18 05:04:33;;;;;;;15.40;8.23;;;-0.30;99.90;;;;;;5061336;28;20525;-70
2021/03/18 05:06:59;;;;;;;10.47;7.10;;;-0.30;99.90;;;;;;5060639;28;20796;-70
2021/03/18 05:09:25;;;;;;;10.97;7.13;;;-0.30;99.90;;;;;;5060191;28;20446;-70
2021/03/18 05:11:53;;;;;;;11.10;7.03;;;-0.20;99.90;;;;;;5059899;28;20455;-70
2021/03/18 05:14:19;;;;;;;12.93;8.50;;;-0.30;99.90;;;;;;5058421;28;20438;-70
2021/03/18 05:16:45;;;;;;;12.90;8.13;;;-0.10;99.90;;;;;;5056967;28;20444;-70
2021/03/18 05:19:12;;;;;;;14.30;8.80;;;-0.10;99.90;;;;;;5058250;28;20432;-70
2021/03/18 05:21:42;;;;;;;12.37;7.70;;;-0.10;99.90;;;;;;5053872;28;20488;-70
2021/03/18 05:24:10;;;;;;;12.47;9.00;;;-0.20;99.90;;;;;;5055900;28;20438;-70
2021/03/18 05:26:35;;;;;;;9.70;8.10;;;-0.10;99.90;;;;;;5060713;28;20839;-70
2021/03/18 05:29:01;;;;;;;11.37;8.17;;;-0.10;99.90;;;;;;5059537;28;20550;-70
2021/03/18 05:31:27;;;;;;;12.60;8.80;;;-0.10;99.90;;;;;;5053512;28;20585;-70
2021/03/18 05:33:52;;;;;;;18.10;7.80;;;0.00;99.90;;;;;;5053658;28;20198;-70
2021/03/18 05:36:19;;;;;;;9.67;7.33;;;-0.10;99.90;;;;;;5058784;28;20659;-71
2021/03/18 05:38:45;;;;;;;13.20;8.27;;;0.00;99.90;;;;;;5060864;28;20229;-70
2021/03/18 05:41:11;;;;;;;11.73;8.27;;;0.00;99.90;;;;;;5059771;28;20903;-70
2021/03/18 05:43:37;;;;;;;19.73;8.27;;;0.00;99.90;;;;;;5056495;28;20186;-70
2021/03/18 05:46:03;;;;;;;10.63;7.67;;;0.10;99.90;;;;;;5050947;28;20211;-70
2021/03/18 05:48:30;;;;;;;12.73;8.20;;;0.10;99.90;;;;;;5042193;28;20467;-70
2021/03/18 05:50:57;;;;;;;13.77;8.03;;;0.10;99.90;;;;;;5047134;28;20426;-70
2021/03/18 05:53:24;;;;;;;9.97;6.13;;;0.20;99.90;;;;;;5049635;28;20459;-70
2021/03/18 05:55:51;;;;;;;12.80;7.30;;;0.20;99.90;;;;;;5058161;28;20496;-71
2021/03/18 05:58:21;;;;;;;11.13;7.70;;;0.20;99.90;;;;;;5058373;28;20540;-70
2021/03/18 06:00:48;;;;;;;11.20;7.20;;;0.20;99.90;;;;;;5072253;28;20417;-70
2021/03/18 06:03:15;;;;;;;14.00;7.53;;;0.30;99.90;;;;;;5055669;28;20507;-70
2021/03/18 06:05:41;;;;;;;12.73;8.10;;;0.30;99.90;;;;;;5051693;28;20434;-70
2021/03/18 06:08:08;;;;;;;11.13;8.53;;;0.30;99.90;;;;;;5058334;28;20488;-70
2021/03/18 06:10:35;;;;;;;22.80;7.00;;;0.30;99.90;;;;;;5055824;28;20445;-70
2021/03/18 06:13:00;;;;;;;11.63;7.43;;;0.40;99.90;;;;;;5053943;28;21186;-70
2021/03/18 06:15:42;;;;;;;14.90;8.00;;;0.40;99.90;;;;;;5052109;28;20462;-70
2021/03/18 06:18:12;;;;;;;10.23;7.30;;;0.40;99.90;;;;;;5054972;28;20179;-70
2021/03/18 06:20:37;;;;;;;12.73;8.07;;;0.50;99.90;;;;;;5072551;28;20472;-69
2021/03/18 06:23:09;;;;;;;15.13;8.30;;;0.60;99.90;;;;;;5054808;28;20459;-70
2021/03/18 06:25:37;;;;;;;15.80;8.67;;;0.50;99.90;;;;;;5059598;28;20574;-70
2021/03/18 06:28:31;;;;;;;16.40;8.87;;;0.60;99.90;;;;;;5056243;28;20799;-70
2021/03/18 06:31:01;;;;;;;14.83;8.90;;;0.60;99.90;;;;;;5056039;28;20454;-70
2021/03/18 06:33:29;;;;;;;15.53;9.20;;;0.60;99.90;;;;;;5056074;28;20520;-71
2021/03/18 06:35:55;;;;;;;11.83;7.57;;;0.60;99.90;;;;;;5055059;28;20419;-70
2021/03/18 06:38:30;;;;;;;17.10;9.20;;;0.70;99.90;;;;;;5059304;28;20857;-70
2021/03/18 06:40:56;;;;;;;21.87;8.00;;;0.70;99.90;;;;;;5049086;28;21403;-70
2021/03/18 06:43:39;;;;;;;18.57;9.03;;;0.70;99.90;;;;;;5052791;28;20421;-70
2021/03/18 06:46:19;;;;;;;16.00;8.70;;;0.80;99.90;;;;;;5054947;28;20433;-70
2021/03/18 06:48:46;;;;;;;16.83;9.00;;;0.90;99.90;;;;;;5057930;28;20417;-70
2021/03/18 06:51:26;;;;;;;14.30;7.80;;;0.90;99.90;;;;;;5059665;28;20763;-70
2021/03/18 06:53:54;;;;;;;15.23;8.27;;;1.00;99.90;;;;;;5058262;28;20456;-70
2021/03/18 06:56:29;;;;;;;18.80;9.17;;;1.10;99.90;;;;;;5059665;28;20445;-70
2021/03/18 06:58:55;;;;;;;15.67;8.10;;;1.10;99.90;;;;;;5059303;28;20466;-70
2021/03/18 07:01:31;;;;;;;16.90;10.13;;;1.20;99.90;;;;;;5059390;28;20481;-70
2021/03/18 07:04:06;;;;;;;17.47;9.23;;;1.20;99.90;;;;;;5057064;28;20426;-69
2021/03/18 07:06:35;;;;;;;22.40;9.23;;;1.50;99.90;;;;;;5057871;28;20517;-69
2021/03/18 07:09:10;;;;;;;15.23;8.97;;;1.40;99.90;;;;;;5056084;28;20434;-69
2021/03/18 07:11:42;;;;;;;20.60;9.40;;;1.30;99.90;;;;;;5058241;28;20551;-69
2021/03/18 07:14:09;;;;;;;14.43;8.17;;;1.30;99.90;;;;;;5051776;28;20454;-70
2021/03/18 07:16:46;;;;;;;12.47;9.00;;;1.40;99.90;;;;;;5054849;28;20441;-70
2021/03/18 07:19:23;;;;;;;23.73;9.73;;;1.40;99.90;;;;;;5057913;28;20419;-70
2021/03/18 07:21:49;;;;;;;13.80;7.53;;;1.40;99.90;;;;;;5060556;28;20814;-71
2021/03/18 07:24:21;;;;;;;13.87;8.57;;;1.50;99.90;;;;;;5059354;28;20453;-70
2021/03/18 07:26:46;;;;;;;21.13;8.63;;;1.60;99.90;;;;;;5056443;28;20419;-71
2021/03/18 07:29:17;;;;;;;19.23;9.53;;;1.70;99.90;;;;;;5058276;28;20449;-71
2021/03/18 07:31:44;;;;;;;14.27;8.27;;;1.80;99.90;;;;;;5056265;28;20193;-71
2021/03/18 07:34:10;;;;;;;19.50;9.37;;;1.80;99.90;;;;;;5057805;28;20825;-71
2021/03/18 07:36:37;;;;;;;30.67;10.30;;;1.70;99.90;;;;;;5060218;28;20437;-70
2021/03/18 07:39:05;;;;;;;15.47;8.40;;;1.70;99.90;;;;;;5060203;28;20514;-71
2021/03/18 07:41:32;;;;;;;17.90;9.63;;;1.80;99.90;;;;;;5057643;28;20517;-71
2021/03/18 07:43:59;;;;;;;14.80;7.77;;;1.80;99.90;;;;;;5061169;28;20431;-71
2021/03/18 07:46:25;;;;;;;13.83;6.60;;;1.80;99.90;;;;;;5043745;28;20486;-71
2021/03/18 07:48:59;;;;;;;13.07;7.30;;;1.70;99.90;;;;;;5050328;28;20457;-70
2021/03/18 07:51:27;;;;;;;15.47;7.60;;;1.70;99.90;;;;;;5059911;28;20922;-70
2021/03/18 07:53:57;;;;;;;16.77;7.80;;;1.70;99.90;;;;;;5057983;28;20983;-70
2021/03/18 07:56:24;;;;;;;16.43;7.90;;;1.80;99.90;;;;;;5058650;28;20423;-70
2021/03/18 07:58:50;;;;;;;16.77;7.20;;;1.70;99.90;;;;;;5060471;28;20452;-70
2021/03/18 08:01:28;;;;;;;21.03;7.90;;;1.70;99.90;;;;;;5062517;28;20437;-70
2021/03/18 08:03:54;;;;;;;15.30;6.90;;;1.70;99.90;;;;;;5074098;28;20434;-72
2021/03/18 08:06:53;;;;;;;14.17;7.10;;;1.80;99.90;;;;;;5059075;28;20432;-72
2021/03/18 08:09:24;;;;;;;11.93;7.53;;;1.60;99.90;;;;;;5036984;28;20940;-71
2021/03/18 08:11:51;;;;;;;13.83;6.93;;;1.60;99.90;;;;;;5059758;28;20782;-71
2021/03/18 08:14:20;;;;;;;18.30;8.40;;;1.60;99.90;;;;;;5054858;28;20441;-71
2021/03/18 08:16:46;;;;;;;22.27;8.97;;;1.60;99.90;;;;;;5057669;28;20419;-71
2021/03/18 08:19:14;;;;;;;17.50;9.00;;;1.60;99.90;;;;;;5060500;28;20763;-71
2021/03/18 08:21:44;;;;;;;16.97;8.00;;;1.70;99.90;;;;;;5056317;28;20436;-70
2021/03/18 08:24:22;;;;;;;13.97;7.43;;;1.70;99.90;;;;;;5058338;28;20470;-71
2021/03/18 08:26:56;;;;;;;15.10;7.83;;;1.70;99.90;;;;;;5059687;28;20426;-70
2021/03/18 08:29:26;;;;;;;14.73;8.10;;;1.80;99.90;;;;;;5060338;28;20823;-71
2021/03/18 08:32:01;;;;;;;14.93;7.87;;;1.70;99.90;;;;;;5057927;28;20908;-70
2021/03/18 08:34:53;;;;;;;15.13;7.57;;;1.80;99.90;;;;;;5060529;28;20419;-70
2021/03/18 08:37:39;;;;;;;14.97;7.77;;;1.80;99.90;;;;;;5060914;28;20427;-70
2021/03/18 08:40:18;;;;;;;20.70;8.30;;;1.80;99.90;;;;;;5057987;28;20422;-71
2021/03/18 08:42:46;;;;;;;12.13;7.67;;;1.80;99.90;;;;;;5056344;28;20430;-71
2021/03/18 08:45:32;;;;;;;20.13;8.43;;;1.90;99.90;;;;;;5056647;28;20438;-71
2021/03/18 08:48:08;;;;;;;15.20;7.73;;;1.90;99.90;;;;;;5041777;28;20427;-72
2021/03/18 08:50:34;;;;;;;14.03;8.30;;;2.00;99.90;;;;;;5052174;28;20437;-71
2021/03/18 08:53:01;;;;;;;15.93;9.10;;;2.00;99.90;;;;;;5057303;28;20447;-71
2021/03/18 08:55:38;;;;;;;16.20;7.97;;;2.20;99.90;;;;;;5057000;28;20185;-71
2021/03/18 08:58:08;;;;;;;14.77;8.23;;;2.30;99.90;;;;;;5053772;28;20427;-71
2021/03/18 09:00:35;;;;;;;17.83;8.83;;;2.20;99.90;;;;;;5049472;28;20500;-71
2021/03/18 09:03:02;;;;;;;20.40;9.20;;;2.30;99.90;;;;;;5054732;28;20543;-71
2021/03/18 09:05:27;;;;;;;15.73;7.60;;;2.40;99.90;;;;;;5051175;28;20545;-71
2021/03/18 09:07:58;;;;;;;17.33;7.07;;;2.30;99.90;;;;;;5053785;28;20529;-71
2021/03/18 09:10:26;;;;;;;15.53;8.37;;;2.40;99.90;;;;;;5054075;28;20173;-71
2021/03/18 09:13:05;;;;;;;13.27;9.50;;;2.60;99.90;;;;;;5048748;28;20622;-70
2021/03/18 09:15:39;;;;;;;15.33;7.80;;;2.50;99.90;;;;;;5057066;28;20452;-71
2021/03/18 09:18:17;;;;;;;15.30;7.53;;;2.50;99.90;;;;;;5055098;28;20464;-71
2021/03/18 09:20:57;;;;;;;12.27;7.37;;;2.50;99.90;;;;;;5053320;28;20456;-71
2021/03/18 09:23:29;;;;;;;14.17;8.37;;;2.50;99.90;;;;;;5054050;28;20434;-71
2021/03/18 09:26:00;;;;;;;19.07;8.47;;;2.60;99.90;;;;;;5059030;28;20467;-71
2021/03/18 09:28:32;;;;;;;13.60;7.10;;;2.80;99.90;;;;;;5058104;28;20499;-71
2021/03/18 09:30:57;;;;;;;16.40;8.77;;;2.80;99.90;;;;;;5055340;28;20461;-70
2021/03/18 09:33:33;;;;;;;18.70;7.87;;;3.00;99.90;;;;;;5055469;28;20485;-70
2021/03/18 09:36:02;;;;;;;14.10;7.40;;;3.10;99.90;;;;;;5056763;28;20517;-70
2021/03/18 09:38:30;;;;;;;13.90;7.63;;;3.20;99.90;;;;;;5057640;28;20433;-71
2021/03/18 09:40:59;;;;;;;14.87;8.70;;;3.20;99.90;;;;;;5051171;28;20425;-70
2021/03/18 09:43:26;;;;;;;12.30;6.30;;;3.10;99.90;;;;;;5052744;28;20888;-70
2021/03/18 09:46:00;;;;;;;17.83;8.00;;;3.00;99.90;;;;;;5054319;28;20468;-70
2021/03/18 09:48:34;;;;;;;13.73;6.77;;;3.10;99.90;;;;;;5053183;28;20427;-70
2021/03/18 09:51:12;;;;;;;16.93;8.50;;;3.20;99.90;;;;;;5055021;28;20428;-71
2021/03/18 09:53:42;;;;;;;11.10;7.50;;;3.30;99.90;;;;;;5051499;28;20561;-70
2021/03/18 09:56:13;;;;;;;15.47;7.73;;;3.30;99.90;;;;;;5052036;28;20841;-71
2021/03/18 09:58:39;;;;;;;13.47;7.30;;;3.40;99.90;;;;;;5055758;28;20881;-70
2021/03/18 10:01:13;;;;;;;13.47;7.67;;;3.50;99.90;;;;;;5049912;28;20433;-71
2021/03/18 10:03:58;;;;;;;15.00;7.73;;;3.60;99.90;;;;;;5055093;28;20760;-70
2021/03/18 10:06:31;;;;;;;14.10;7.40;;;3.60;99.90;;;;;;5058782;28;20849;-71
2021/03/18 10:09:19;;;;;;;13.13;6.67;;;3.70;99.90;;;;;;5054334;28;20435;-70
2021/03/18 10:12:09;;;;;;;10.50;6.90;;;3.80;99.90;;;;;;5056570;28;20476;-70
2021/03/18 10:14:34;;;;;;;13.23;7.40;;;3.70;99.90;;;;;;5053423;28;20427;-70
2021/03/18 10:17:02;;;;;;;12.53;7.30;;;3.80;99.90;;;;;;5054940;28;20424;-70
2021/03/18 10:19:30;;;;;;;10.53;7.20;;;3.90;99.90;;;;;;5058612;28;20182;-70
2021/03/18 10:22:01;;;;;;;14.43;7.10;;;4.00;99.90;;;;;;5062520;28;20471;-70
2021/03/18 10:24:27;;;;;;;11.87;6.70;;;4.20;99.90;;;;;;5060435;28;20427;-70
2021/03/18 10:26:53;;;;;;;9.83;6.20;;;4.20;99.90;;;;;;5057209;28;20453;-71
2021/03/18 10:29:19;;;;;;;10.67;6.27;;;4.30;99.90;;;;;;5056707;28;20617;-70
2021/03/18 10:31:45;;;;;;;10.70;5.60;;;4.50;99.90;;;;;;5060184;28;20193;-71
2021/03/18 10:34:24;;;;;;;12.20;6.53;;;4.60;99.90;;;;;;5058626;28;20504;-71
2021/03/18 10:36:50;;;;;;;10.63;6.37;;;4.70;99.90;;;;;;5055217;28;20173;-71
2021/03/18 10:39:20;;;;;;;13.87;6.93;;;4.70;99.90;;;;;;5063678;28;20529;-71
2021/03/18 10:42:00;;;;;;;12.20;6.27;;;4.70;99.90;;;;;;5053968;28;20415;-71
2021/03/18 10:44:38;;;;;;;8.47;5.80;;;4.90;99.90;;;;;;5054116;28;20520;-71
2021/03/18 10:47:22;;;;;;;11.30;6.20;;;5.10;99.90;;;;;;5055552;28;20426;-71
2021/03/18 10:50:02;;;;;;;11.20;6.30;;;5.30;99.90;;;;;;5052423;28;20514;-71
2021/03/18 10:52:28;;;;;;;10.33;6.80;;;5.40;99.90;;;;;;5061388;28;21009;-71
2021/03/18 10:54:58;;;;;;;8.33;5.77;;;5.50;99.90;;;;;;5055702;28;20550;-71
2021/03/18 10:57:25;;;;;;;8.90;5.90;;;5.50;99.90;;;;;;5053599;28;20175;-72
2021/03/18 10:59:55;;;;;;;12.80;6.90;;;5.50;99.90;;;;;;5058002;28;20435;-71
2021/03/18 11:02:23;;;;;;;7.13;5.10;;;5.60;99.90;;;;;;5054678;28;20441;-71
2021/03/18 11:04:57;;;;;;;11.43;6.13;;;5.70;99.90;;;;;;5055915;28;20461;-71
2021/03/18 11:07:23;;;;;;;7.73;5.10;;;5.90;99.90;;;;;;5054979;28;20477;-71
2021/03/18 11:10:15;;;;;;;10.07;5.63;;;6.10;99.90;;;;;;5054061;28;20892;-72
2021/03/18 11:12:42;;;;;;;8.33;5.30;;;5.90;99.90;;;;;;5059535;28;20519;-71
2021/03/18 11:15:09;;;;;;;9.70;5.57;;;6.00;99.90;;;;;;5061270;28;20423;-72
2021/03/18 11:17:35;;;;;;;8.70;5.67;;;6.00;99.90;;;;;;5062688;28;20415;-71
2021/03/18 11:20:15;;;;;;;8.23;5.17;;;6.00;99.90;;;;;;5061762;28;20439;-71
2021/03/18 11:22:42;;;;;;;8.80;5.13;;;6.20;99.90;;;;;;5055891;28;20901;-71
2021/03/18 11:25:09;;;;;;;7.07;4.57;;;6.60;99.90;;;;;;5054364;28;20509;-71
2021/03/18 11:27:35;;;;;;;6.90;5.00;;;7.10;99.90;;;;;;5049488;28;20459;-70
2021/03/18 11:30:01;;;;;;;5.80;4.23;;;7.50;99.90;;;;;;5055896;28;20443;-72
2021/03/18 11:32:27;;;;;;;9.67;5.73;;;7.70;99.90;;;;;;5055339;28;20463;-72
2021/03/18 11:34:59;;;;;;;6.17;4.50;;;7.70;99.90;;;;;;5057148;28;20433;-71
2021/03/18 11:37:25;;;;;;;9.20;5.00;;;7.30;99.90;;;;;;5057667;28;20166;-71
2021/03/18 11:39:51;;;;;;;6.30;4.53;;;7.20;99.90;;;;;;5055081;28;20442;-71
2021/03/18 11:42:16;;;;;;;8.30;4.63;;;7.00;99.90;;;;;;5055219;28;20195;-71
2021/03/18 11:44:42;;;;;;;6.70;5.50;;;7.00;99.90;;;;;;5060161;28;20521;-72
2021/03/18 11:47:15;;;;;;;9.73;4.90;;;7.00;99.90;;;;;;5059266;28;20229;-71
2021/03/18 11:49:43;;;;;;;7.20;5.10;;;7.00;99.90;;;;;;5061503;28;20479;-72
2021/03/18 11:52:10;;;;;;;7.37;4.40;;;7.00;99.90;;;;;;5061686;28;20490;-72
2021/03/18 11:54:37;;;;;;;7.13;4.90;;;7.30;99.90;;;;;;5061189;28;20529;-72
2021/03/18 11:57:05;;;;;;;7.17;4.43;;;7.60;99.90;;;;;;5058971;28;20432;-72
2021/03/18 11:59:31;;;;;;;6.20;4.77;;;7.60;99.90;;;;;;5059283;28;20428;-72
2021/03/18 12:01:57;;;;;;;6.33;4.50;;;7.30;99.90;;;;;;5056127;28;20447;-72
2021/03/18 12:04:22;;;;;;;8.50;4.97;;;7.40;99.90;;;;;;5057495;28;20545;-72
2021/03/18 12:06:48;;;;;;;8.43;5.30;;;7.70;99.90;;;;;;5054051;28;20192;-71
2021/03/18 12:09:14;;;;;;;6.47;4.10;;;8.00;99.90;;;;;;5049319;28;20260;-72
2021/03/18 12:11:40;;;;;;;8.10;5.00;;;8.20;99.90;;;;;;5052740;28;20516;-72
2021/03/18 12:14:05;;;;;;;8.10;5.80;;;8.20;99.90;;;;;;5055384;28;20235;-72
2021/03/18 12:16:31;;;;;;;7.77;4.43;;;8.10;99.90;;;;;;5060935;28;20181;-72
2021/03/18 12:18:57;;;;;;;4.80;3.80;;;8.10;99.90;;;;;;5058491;28;20173;-72
2021/03/18 12:21:23;;;;;;;8.50;5.30;;;8.20;99.90;;;;;;5055744;28;20741;-75
2021/03/18 12:23:48;;;;;;;9.47;4.83;;;8.20;99.90;;;;;;5053005;28;20905;-75
2021/03/18 12:26:15;;;;;;;8.43;4.60;;;8.40;99.90;;;;;;5055347;28;21559;-72
2021/03/18 12:28:40;;;;;;;6.77;5.40;;;8.60;99.90;;;;;;5058668;28;20177;-72
2021/03/18 12:31:06;;;;;;;7.33;4.80;;;8.70;99.90;;;;;;5054148;28;20935;-72
2021/03/18 12:33:32;;;;;;;10.43;4.93;;;8.70;99.90;;;;;;5054570;28;20196;-73
2021/03/18 12:35:57;;;;;;;7.33;5.03;;;8.70;99.90;;;;;;5055664;28;20813;-72
2021/03/18 12:38:23;;;;;;;6.90;4.63;;;8.50;99.90;;;;;;5051748;28;20165;-72
2021/03/18 12:40:51;;;;;;;6.23;4.27;;;8.30;99.90;;;;;;5052158;28;20303;-72
2021/03/18 12:43:17;;;;;;;7.37;5.00;;;8.00;99.90;;;;;;5054966;28;20431;-72
2021/03/18 12:45:44;;;;;;;5.70;4.67;;;7.90;99.90;;;;;;5052753;28;20424;-72
2021/03/18 12:48:10;;;;;;;6.80;5.10;;;7.60;99.90;;;;;;5049886;28;20518;-72
2021/03/18 12:50:37;;;;;;;8.57;4.50;;;7.30;99.90;;;;;;5053455;28;20431;-72
2021/03/18 12:53:03;;;;;;;7.27;4.73;;;7.20;99.90;;;;;;5049405;28;20478;-72
2021/03/18 12:55:28;;;;;;;4.40;3.87;;;7.30;99.90;;;;;;5049669;28;20436;-72
2021/03/18 12:57:55;;;;;;;6.30;3.60;;;7.00;99.90;;;;;;5045627;28;20423;-72
2021/03/18 13:00:27;;;;;;;5.80;4.57;;;6.90;99.90;;;;;;5054078;28;20168;-74